Time;durP1;ratioP1;P1;durP2;ratioP2;P2;SDS_P1;SDS_P2;PMS_P1;PMS_P2;Temp;Humidity;BMP_temperature;BMP_pressure;BME280_temperature;BME280_humidity;BME280_pressure;Samples;Min_cycle;Max_cycle;Signal;HPM_P1;HPM_P2
2022/11/30 00:00:54;;;;;;;81.67;31.13;;;7.40;99.90;;;;;;5037230;28;20202;-70
2022/11/30 00:03:20;;;;;;;77.17;28.40;;;7.40;99.90;;;;;;5036799;28;20209;-70
2022/11/30 00:05:46;;;;;;;83.57;33.17;;;7.40;99.90;;;;;;5036714;28;20183;-70
2022/11/30 00:08:12;;;;;;;73.83;29.37;;;7.40;99.90;;;;;;5036568;28;20191;-70
2022/11/30 00:10:39;;;;;;;81.27;33.53;;;7.30;99.90;;;;;;5036502;28;20207;-70
2022/11/30 00:13:04;;;;;;;78.47;30.77;;;7.40;99.90;;;;;;5036952;28;20179;-70
2022/11/30 00:15:30;;;;;;;80.63;32.50;;;7.30;99.90;;;;;;5036450;28;20625;-70
2022/11/30 00:17:57;;;;;;;73.87;30.77;;;7.30;99.90;;;;;;5036775;28;20183;-71
2022/11/30 00:20:23;;;;;;;74.97;30.63;;;7.30;99.90;;;;;;5036584;28;20203;-70
2022/11/30 00:22:49;;;;;;;88.07;33.03;;;7.40;99.90;;;;;;5036354;28;20214;-70
2022/11/30 00:25:14;;;;;;;87.13;32.50;;;7.40;99.90;;;;;;5036343;28;20187;-70
2022/11/30 00:27:40;;;;;;;73.50;30.43;;;7.30;99.90;;;;;;5036434;28;20182;-70
2022/11/30 00:30:06;;;;;;;97.13;33.87;;;7.30;99.90;;;;;;5036501;28;20260;-70
2022/11/30 00:32:32;;;;;;;93.47;33.00;;;7.30;99.90;;;;;;5036271;28;20633;-70
2022/11/30 00:34:58;;;;;;;88.87;32.87;;;7.30;99.90;;;;;;5036153;28;20211;-70
2022/11/30 00:37:24;;;;;;;82.00;31.80;;;7.30;99.90;;;;;;5036082;28;20539;-70
2022/11/30 00:39:50;;;;;;;82.43;32.80;;;7.30;99.90;;;;;;5035930;28;20210;-70
2022/11/30 00:42:16;;;;;;;90.83;33.23;;;7.40;99.90;;;;;;5036130;28;20189;-70
2022/11/30 00:44:41;;;;;;;75.27;31.67;;;7.30;99.90;;;;;;5036053;28;20612;-70
2022/11/30 00:47:07;;;;;;;89.43;32.40;;;7.30;99.90;;;;;;5035861;28;20179;-70
2022/11/30 00:49:33;;;;;;;89.33;34.17;;;7.30;99.90;;;;;;5035654;28;20603;-70
2022/11/30 00:51:59;;;;;;;84.80;31.80;;;7.30;99.90;;;;;;5034530;28;20176;-71
2022/11/30 00:54:25;;;;;;;84.53;33.30;;;7.30;99.90;;;;;;5034927;28;20670;-70
2022/11/30 00:56:51;;;;;;;86.70;31.53;;;7.40;99.90;;;;;;5035654;28;20254;-70
2022/11/30 00:59:16;;;;;;;87.40;32.93;;;7.40;99.90;;;;;;5036148;28;20597;-70
2022/11/30 01:01:42;;;;;;;95.03;33.73;;;7.40;99.90;;;;;;5034286;28;20195;-70
2022/11/30 01:04:08;;;;;;;95.83;32.50;;;7.30;99.90;;;;;;5034244;28;20232;-70
2022/11/30 01:06:34;;;;;;;90.73;35.23;;;7.30;99.90;;;;;;5035618;28;20186;-70
2022/11/30 01:09:01;;;;;;;90.63;33.37;;;7.30;99.90;;;;;;5035465;28;20211;-70
2022/11/30 01:11:28;;;;;;;109.23;36.23;;;7.30;99.90;;;;;;5035142;28;20219;-70
2022/11/30 01:13:56;;;;;;;97.83;35.37;;;7.30;99.90;;;;;;5035417;28;20266;-70
2022/11/30 01:16:25;;;;;;;114.30;39.47;;;7.30;99.90;;;;;;5035289;28;20244;-70
2022/11/30 01:18:51;;;;;;;108.17;36.00;;;7.20;99.90;;;;;;5035374;28;20179;-70
2022/11/30 01:21:19;;;;;;;113.37;36.70;;;7.30;99.90;;;;;;5035097;28;20585;-70
2022/11/30 01:23:45;;;;;;;118.97;39.03;;;7.20;99.90;;;;;;5035808;28;20667;-70
2022/11/30 01:26:11;;;;;;;107.57;37.27;;;7.20;99.90;;;;;;5035079;28;20266;-70
2022/11/30 01:28:37;;;;;;;115.50;36.23;;;7.30;99.90;;;;;;5035301;28;20195;-70
2022/11/30 01:31:04;;;;;;;108.87;36.57;;;7.30;99.90;;;;;;5033860;28;20199;-71
2022/11/30 01:33:30;;;;;;;111.57;38.60;;;7.30;99.90;;;;;;5033726;28;20270;-70
2022/11/30 01:36:04;;;;;;;131.40;38.97;;;7.30;99.90;;;;;;5034859;28;20313;-70
2022/11/30 01:38:38;;;;;;;119.80;38.00;;;7.30;99.90;;;;;;5033584;28;20194;-70
2022/11/30 01:41:05;;;;;;;120.43;39.30;;;7.30;99.90;;;;;;5034714;28;20270;-71
2022/11/30 01:43:50;;;;;;;117.90;37.97;;;7.30;99.90;;;;;;5034849;28;20267;-70
2022/11/30 01:46:34;;;;;;;130.70;38.20;;;7.30;99.90;;;;;;5034913;28;20234;-70
2022/11/30 01:49:08;;;;;;;108.33;37.97;;;7.30;99.90;;;;;;5034592;28;20562;-70
2022/11/30 01:52:16;;;;;;;116.03;37.23;;;7.30;99.90;;;;;;5016885;28;20246;-70
2022/11/30 01:55:10;;;;;;;114.10;36.03;;;7.30;99.90;;;;;;5033209;28;20686;-70
2022/11/30 01:57:40;;;;;;;121.37;37.97;;;7.30;99.90;;;;;;5033309;28;20186;-70
2022/11/30 02:00:09;;;;;;;96.60;34.57;;;7.30;99.90;;;;;;5034277;28;20203;-70
2022/11/30 02:02:56;;;;;;;114.90;38.67;;;7.30;99.90;;;;;;5034268;28;20206;-70
2022/11/30 02:05:24;;;;;;;116.60;39.20;;;7.30;99.90;;;;;;5033623;28;20167;-70
2022/11/30 02:07:50;;;;;;;128.97;40.13;;;7.40;99.90;;;;;;5032766;28;20187;-70
2022/11/30 02:10:23;;;;;;;123.67;39.70;;;7.30;99.90;;;;;;5033142;28;20683;-70
2022/11/30 02:13:09;;;;;;;131.40;40.87;;;7.30;99.90;;;;;;5034641;28;20160;-70
2022/11/30 02:15:52;;;;;;;125.77;40.80;;;7.30;99.90;;;;;;5034201;28;20195;-70
2022/11/30 02:18:41;;;;;;;128.73;40.07;;;7.30;99.90;;;;;;5034128;28;20246;-70
2022/11/30 02:21:32;;;;;;;118.30;39.50;;;7.30;99.90;;;;;;5034193;28;20199;-70
2022/11/30 02:24:18;;;;;;;131.33;41.97;;;7.30;99.90;;;;;;5034336;28;20172;-70
2022/11/30 02:26:55;;;;;;;126.57;40.60;;;7.30;99.90;;;;;;5033816;28;20339;-70
2022/11/30 02:29:29;;;;;;;120.90;37.63;;;7.30;99.90;;;;;;5033735;28;20555;-70
2022/11/30 02:32:04;;;;;;;110.67;38.90;;;7.30;99.90;;;;;;5034098;28;20168;-70
2022/11/30 02:34:33;;;;;;;112.13;38.07;;;7.30;99.90;;;;;;5033842;28;20159;-71
2022/11/30 02:37:00;;;;;;;111.23;37.23;;;7.40;99.90;;;;;;5032492;28;20643;-71
2022/11/30 02:39:26;;;;;;;98.27;35.50;;;7.40;99.90;;;;;;5033568;28;20186;-70
2022/11/30 02:41:51;;;;;;;108.53;34.57;;;7.40;99.90;;;;;;5032280;28;20209;-70
2022/11/30 02:44:21;;;;;;;67.37;28.57;;;7.40;99.90;;;;;;5034216;28;20174;-70
2022/11/30 02:47:04;;;;;;;63.13;27.23;;;7.40;99.90;;;;;;5032322;28;20189;-70
2022/11/30 02:49:52;;;;;;;60.23;28.20;;;7.40;99.90;;;;;;5033412;28;20722;-70
2022/11/30 02:52:25;;;;;;;67.60;29.17;;;7.30;99.90;;;;;;5033457;28;20175;-70
2022/11/30 02:54:52;;;;;;;63.87;27.47;;;7.30;99.90;;;;;;5032170;28;20205;-70
2022/11/30 02:57:18;;;;;;;63.77;28.97;;;7.20;99.90;;;;;;5032208;28;20179;-71
2022/11/30 02:59:44;;;;;;;64.93;28.27;;;7.20;99.90;;;;;;5032179;28;20622;-70
2022/11/30 03:02:10;;;;;;;81.27;31.77;;;7.20;99.90;;;;;;5032229;28;20241;-70
2022/11/30 03:04:36;;;;;;;82.43;32.03;;;7.10;99.90;;;;;;5033538;28;20175;-70
2022/11/30 03:07:02;;;;;;;75.30;33.43;;;7.10;99.90;;;;;;5033427;28;20249;-70
2022/11/30 03:09:27;;;;;;;76.80;31.50;;;7.10;99.90;;;;;;5033055;28;20583;-70
2022/11/30 03:11:53;;;;;;;63.97;27.07;;;7.10;99.90;;;;;;5033323;28;20254;-71
2022/11/30 03:14:19;;;;;;;59.33;27.37;;;7.00;99.90;;;;;;5033216;28;20640;-71
2022/11/30 03:16:44;;;;;;;66.83;26.67;;;7.00;99.90;;;;;;5034301;28;20585;-70
2022/11/30 03:19:11;;;;;;;56.17;25.20;;;6.90;99.90;;;;;;5036186;28;20179;-70
2022/11/30 03:21:37;;;;;;;56.93;26.77;;;6.90;99.90;;;;;;5037503;28;20210;-70
2022/11/30 03:24:02;;;;;;;54.10;27.57;;;6.90;99.90;;;;;;5036103;28;20187;-70
2022/11/30 03:26:28;;;;;;;63.00;30.13;;;6.90;99.90;;;;;;5037190;28;20183;-70
2022/11/30 03:28:54;;;;;;;70.40;30.30;;;6.90;99.90;;;;;;5035899;28;20711;-70
2022/11/30 03:31:20;;;;;;;80.63;31.17;;;6.90;99.90;;;;;;5035803;28;20543;-70
2022/11/30 03:33:46;;;;;;;73.70;31.10;;;6.80;99.90;;;;;;5037248;28;20548;-70
2022/11/30 03:36:12;;;;;;;66.77;31.33;;;6.80;99.90;;;;;;5037706;28;20180;-70
2022/11/30 03:38:38;;;;;;;63.77;28.10;;;6.70;99.90;;;;;;5037000;28;20262;-70
2022/11/30 03:41:06;;;;;;;57.93;27.77;;;6.70;99.90;;;;;;5036747;28;20282;-70
2022/11/30 03:43:32;;;;;;;56.23;26.03;;;6.70;99.90;;;;;;5035729;28;20175;-70
2022/11/30 03:45:58;;;;;;;46.57;24.13;;;6.60;99.90;;;;;;5037026;28;20539;-70
2022/11/30 03:48:24;;;;;;;49.17;25.10;;;6.60;99.90;;;;;;5036917;28;20711;-70
2022/11/30 03:50:50;;;;;;;47.73;23.00;;;6.60;99.90;;;;;;5035476;28;20337;-70
2022/11/30 03:53:20;;;;;;;48.90;26.00;;;6.60;99.90;;;;;;5036820;28;20584;-70
2022/11/30 03:55:51;;;;;;;50.47;25.80;;;6.50;99.90;;;;;;5035298;28;20183;-70
2022/11/30 03:58:17;;;;;;;49.67;26.60;;;6.50;99.90;;;;;;5035488;28;20175;-70
2022/11/30 04:00:43;;;;;;;61.37;27.67;;;6.40;99.90;;;;;;5036630;28;20686;-70
2022/11/30 04:03:08;;;;;;;54.43;27.27;;;6.40;99.90;;;;;;5019019;28;20719;-70
2022/11/30 04:05:34;;;;;;;60.40;27.57;;;6.30;99.90;;;;;;5036772;28;20206;-70
2022/11/30 04:08:00;;;;;;;54.07;26.60;;;6.30;99.90;;;;;;5036704;28;20229;-70
2022/11/30 04:10:26;;;;;;;56.20;27.57;;;6.30;99.90;;;;;;5036543;28;20211;-70
2022/11/30 04:12:51;;;;;;;49.17;25.83;;;6.30;99.90;;;;;;5036630;28;20178;-70
2022/11/30 04:15:17;;;;;;;54.20;25.97;;;6.30;99.90;;;;;;5036299;28;20195;-70
2022/11/30 04:17:43;;;;;;;50.40;24.67;;;6.20;99.90;;;;;;5036373;28;20186;-70
2022/11/30 04:20:10;;;;;;;50.57;24.23;;;6.30;99.90;;;;;;5018758;28;20199;-70
2022/11/30 04:22:35;;;;;;;45.13;24.27;;;6.30;99.90;;;;;;5036606;28;20535;-70
2022/11/30 04:25:01;;;;;;;51.67;26.33;;;6.30;99.90;;;;;;5036186;28;20179;-70
2022/11/30 04:27:30;;;;;;;54.27;26.27;;;6.30;99.90;;;;;;5035007;28;20179;-70
2022/11/30 04:29:56;;;;;;;53.10;26.27;;;6.30;99.90;;;;;;5033597;28;20306;-70
2022/11/30 04:32:21;;;;;;;51.73;26.67;;;6.30;99.90;;;;;;5036153;28;20665;-70
2022/11/30 04:34:47;;;;;;;50.03;26.83;;;6.30;99.90;;;;;;5035987;28;20175;-70
2022/11/30 04:37:13;;;;;;;53.67;28.37;;;6.30;99.90;;;;;;5036046;28;20621;-70
2022/11/30 04:39:38;;;;;;;56.47;28.83;;;6.30;99.90;;;;;;5035644;28;20199;-69
2022/11/30 04:42:04;;;;;;;50.23;27.60;;;6.30;99.90;;;;;;5036141;28;20187;-70
2022/11/30 04:44:30;;;;;;;51.43;26.07;;;6.30;99.90;;;;;;5035769;28;20202;-70
2022/11/30 04:46:55;;;;;;;51.97;27.20;;;6.30;99.90;;;;;;5036309;28;20527;-70
2022/11/30 04:49:21;;;;;;;44.60;25.90;;;6.30;99.90;;;;;;5035640;28;20203;-70
2022/11/30 04:51:47;;;;;;;51.73;26.73;;;6.20;99.90;;;;;;5034449;28;20176;-70
2022/11/30 04:54:13;;;;;;;51.17;28.37;;;6.30;99.90;;;;;;5034732;28;20175;-70
2022/11/30 04:56:38;;;;;;;53.37;27.10;;;6.30;99.90;;;;;;5035396;28;20274;-70
2022/11/30 04:59:04;;;;;;;51.47;26.77;;;6.30;99.90;;;;;;5035664;28;20187;-69
2022/11/30 05:01:30;;;;;;;51.10;26.20;;;6.30;99.90;;;;;;5035455;28;20237;-69
2022/11/30 05:03:58;;;;;;;51.50;26.57;;;6.30;99.90;;;;;;5034173;28;20270;-69
2022/11/30 05:06:25;;;;;;;47.80;26.90;;;6.20;99.90;;;;;;5035455;28;20182;-69
2022/11/30 05:08:50;;;;;;;50.50;26.50;;;6.20;99.90;;;;;;5034076;28;20187;-69
2022/11/30 05:11:16;;;;;;;49.33;26.27;;;6.20;99.90;;;;;;5033783;28;20623;-69
2022/11/30 05:13:42;;;;;;;42.83;25.27;;;6.20;99.90;;;;;;5034014;28;20266;-69
2022/11/30 05:16:09;;;;;;;49.17;26.27;;;6.30;99.90;;;;;;5035305;28;20270;-69
2022/11/30 05:18:35;;;;;;;47.47;24.50;;;6.30;99.90;;;;;;5035133;28;20175;-69
2022/11/30 05:21:01;;;;;;;45.53;25.77;;;6.30;99.90;;;;;;5035073;28;20194;-69
2022/11/30 05:23:27;;;;;;;43.80;25.87;;;6.30;99.90;;;;;;5035393;28;20229;-70
2022/11/30 05:25:53;;;;;;;41.70;23.40;;;6.30;99.90;;;;;;5033652;28;20266;-70
2022/11/30 05:28:19;;;;;;;49.17;26.83;;;6.30;99.90;;;;;;5035541;28;20262;-70
2022/11/30 05:30:45;;;;;;;48.03;25.23;;;6.30;99.90;;;;;;5034774;28;20289;-75
2022/11/30 05:33:11;;;;;;;49.33;26.07;;;6.30;99.90;;;;;;5035204;28;20202;-71
2022/11/30 05:35:37;;;;;;;52.67;26.60;;;6.30;99.90;;;;;;5034834;28;20179;-71
2022/11/30 05:38:03;;;;;;;50.07;25.47;;;6.30;99.90;;;;;;5033528;28;20270;-70
2022/11/30 05:40:31;;;;;;;52.20;27.47;;;6.30;99.90;;;;;;5033254;28;20612;-71
2022/11/30 05:42:58;;;;;;;47.17;26.37;;;6.30;99.90;;;;;;5034885;28;20191;-71
2022/11/30 05:45:24;;;;;;;56.97;28.23;;;6.30;99.90;;;;;;5034726;28;20176;-71
2022/11/30 05:47:50;;;;;;;58.90;29.27;;;6.20;99.90;;;;;;5034866;28;20194;-71
2022/11/30 05:50:16;;;;;;;50.80;27.47;;;6.20;99.90;;;;;;5033205;28;20217;-71
2022/11/30 05:52:42;;;;;;;50.10;28.60;;;6.10;99.90;;;;;;5019562;28;20219;-71
2022/11/30 05:55:08;;;;;;;53.53;28.13;;;6.20;99.90;;;;;;5034306;28;20179;-70
2022/11/30 05:57:38;;;;;;;48.27;26.20;;;6.10;99.90;;;;;;5035216;28;20175;-71
2022/11/30 06:00:08;;;;;;;53.50;28.30;;;6.10;99.90;;;;;;5034584;28;20210;-70
2022/11/30 06:02:34;;;;;;;53.17;28.90;;;6.10;99.90;;;;;;5034581;28;20180;-70
2022/11/30 06:05:00;;;;;;;52.83;28.03;;;6.10;99.90;;;;;;5034433;28;20179;-71
2022/11/30 06:07:26;;;;;;;50.93;27.43;;;6.10;99.90;;;;;;5034371;28;20186;-70
2022/11/30 06:09:51;;;;;;;50.83;27.80;;;6.10;99.90;;;;;;5033913;28;20223;-71
2022/11/30 06:12:17;;;;;;;54.70;27.40;;;6.20;99.90;;;;;;5034152;28;20179;-70
2022/11/30 06:14:43;;;;;;;54.27;28.87;;;6.20;99.90;;;;;;5034357;28;20179;-70
2022/11/30 06:17:09;;;;;;;50.30;27.67;;;6.20;99.90;;;;;;5034071;28;20171;-70
2022/11/30 06:19:34;;;;;;;51.13;26.50;;;6.30;99.90;;;;;;5033985;28;20648;-70
2022/11/30 06:22:00;;;;;;;51.47;27.83;;;6.30;99.90;;;;;;5034372;28;20589;-70
2022/11/30 06:24:26;;;;;;;54.07;28.23;;;6.30;99.90;;;;;;5033806;28;20628;-70
2022/11/30 06:26:51;;;;;;;54.33;29.67;;;6.30;99.90;;;;;;5033722;28;20258;-70
2022/11/30 06:29:17;;;;;;;51.77;27.90;;;6.20;99.90;;;;;;5033843;28;20337;-70
2022/11/30 06:31:43;;;;;;;49.90;27.00;;;6.20;99.90;;;;;;5033862;28;20174;-70
2022/11/30 06:34:08;;;;;;;55.27;29.73;;;6.20;99.90;;;;;;5034018;28;20167;-70
2022/11/30 06:36:34;;;;;;;52.60;29.33;;;6.10;99.90;;;;;;5032369;28;20189;-70
2022/11/30 06:39:00;;;;;;;60.20;31.70;;;6.10;99.90;;;;;;5016156;28;20198;-70
2022/11/30 06:41:26;;;;;;;58.67;30.50;;;6.10;99.90;;;;;;5033609;28;20659;-70
2022/11/30 06:43:52;;;;;;;54.87;29.70;;;6.00;99.90;;;;;;5033606;28;20210;-70
2022/11/30 06:46:17;;;;;;;57.43;30.73;;;6.00;99.90;;;;;;5033587;28;20171;-70
2022/11/30 06:48:48;;;;;;;56.83;30.80;;;6.00;99.90;;;;;;5034018;28;20512;-70
2022/11/30 06:51:14;;;;;;;54.53;29.43;;;6.00;99.90;;;;;;5033319;28;20202;-70
2022/11/30 06:53:43;;;;;;;51.70;28.27;;;6.10;99.90;;;;;;5033808;28;20171;-70
2022/11/30 06:56:09;;;;;;;55.90;29.93;;;6.10;99.90;;;;;;5031858;28;20171;-70
2022/11/30 06:58:35;;;;;;;50.63;30.43;;;6.10;99.90;;;;;;5033384;28;20607;-71
2022/11/30 07:01:04;;;;;;;58.27;28.83;;;6.20;99.90;;;;;;5033311;28;20195;-70
2022/11/30 07:03:29;;;;;;;50.43;28.67;;;6.20;99.90;;;;;;5032074;28;20207;-71
2022/11/30 07:05:55;;;;;;;54.47;29.73;;;6.20;99.90;;;;;;5033425;28;20209;-71
2022/11/30 07:08:21;;;;;;;54.47;29.13;;;6.20;99.90;;;;;;5032081;28;20256;-71
2022/11/30 07:10:47;;;;;;;52.90;29.27;;;6.20;99.90;;;;;;5032084;28;20210;-70
2022/11/30 07:13:16;;;;;;;48.07;25.80;;;6.20;99.90;;;;;;5032493;28;20171;-70
2022/11/30 07:15:42;;;;;;;49.77;27.87;;;6.20;99.90;;;;;;5033242;28;20677;-70
2022/11/30 07:18:09;;;;;;;53.83;29.13;;;6.20;99.90;;;;;;5031941;28;20182;-70
2022/11/30 07:20:35;;;;;;;51.97;28.20;;;6.20;99.90;;;;;;5033239;28;20199;-70
2022/11/30 07:28:38;;;;;;;53.43;28.70;;;6.20;99.90;;;;;;5033827;28;20169;-70
2022/11/30 07:31:16;;;;;;;46.70;24.90;;;6.20;99.90;;;;;;5033007;28;20611;-72
2022/11/30 07:33:42;;;;;;;42.60;23.73;;;6.20;99.90;;;;;;5015450;28;20175;-71
2022/11/30 07:36:08;;;;;;;50.07;26.50;;;6.20;99.90;;;;;;5033343;28;20171;-70
2022/11/30 07:38:34;;;;;;;46.93;26.80;;;6.30;99.90;;;;;;5033094;28;20177;-70
2022/11/30 07:40:59;;;;;;;46.83;24.97;;;6.30;99.90;;;;;;5032848;28;20187;-70
2022/11/30 07:43:27;;;;;;;47.43;27.17;;;6.30;99.90;;;;;;5032998;28;20171;-70
2022/11/30 07:45:53;;;;;;;52.30;28.17;;;6.30;99.90;;;;;;5031775;28;20206;-70
2022/11/30 07:48:20;;;;;;;49.77;27.03;;;6.40;99.90;;;;;;5033301;28;20178;-70
2022/11/30 07:50:46;;;;;;;59.17;29.20;;;6.40;99.90;;;;;;5032769;28;20222;-70
2022/11/30 07:53:12;;;;;;;56.83;29.37;;;6.40;99.90;;;;;;5031636;28;20221;-70
2022/11/30 07:55:38;;;;;;;52.73;27.00;;;6.40;99.90;;;;;;5032895;28;20235;-70
2022/11/30 07:58:04;;;;;;;56.17;29.10;;;6.40;99.90;;;;;;5032991;28;20259;-70
2022/11/30 08:00:29;;;;;;;51.83;27.57;;;6.40;99.90;;;;;;5032846;28;20206;-70
2022/11/30 08:02:55;;;;;;;53.23;27.37;;;6.40;99.90;;;;;;5015573;28;20675;-70
2022/11/30 08:05:22;;;;;;;55.33;28.93;;;6.40;99.90;;;;;;5034935;28;20266;-70
2022/11/30 08:07:52;;;;;;;48.43;27.67;;;6.50;99.90;;;;;;5036353;28;20198;-70
2022/11/30 08:10:18;;;;;;;57.43;27.90;;;6.50;99.90;;;;;;5036130;28;20691;-70
2022/11/30 08:12:44;;;;;;;58.77;29.83;;;6.50;99.90;;;;;;5034810;28;20592;-70
2022/11/30 08:15:10;;;;;;;56.93;27.10;;;6.50;99.90;;;;;;5036707;28;20202;-70
2022/11/30 08:17:36;;;;;;;58.90;30.30;;;6.50;99.90;;;;;;5034696;28;20179;-70
2022/11/30 08:20:01;;;;;;;61.43;30.10;;;6.50;99.90;;;;;;5036006;28;20203;-70
2022/11/30 08:22:27;;;;;;;64.97;32.50;;;6.50;99.90;;;;;;5034941;28;20214;-70
2022/11/30 08:24:53;;;;;;;64.10;30.27;;;6.50;99.90;;;;;;5034995;28;20206;-70
2022/11/30 08:27:18;;;;;;;61.17;29.23;;;6.50;99.90;;;;;;5034677;28;20190;-70
2022/11/30 08:29:44;;;;;;;59.90;31.53;;;6.50;99.90;;;;;;5036251;28;20281;-70
2022/11/30 08:32:10;;;;;;;54.73;29.83;;;6.50;99.90;;;;;;5035805;28;20649;-70
2022/11/30 08:34:36;;;;;;;54.27;29.97;;;6.50;99.90;;;;;;5035908;28;20167;-70
2022/11/30 08:37:02;;;;;;;63.80;31.43;;;6.50;99.90;;;;;;5036005;28;20182;-70
2022/11/30 08:39:30;;;;;;;61.57;30.73;;;6.50;99.90;;;;;;5034622;28;20241;-70
2022/11/30 08:41:56;;;;;;;57.07;27.87;;;6.50;99.90;;;;;;5034559;28;20207;-70
2022/11/30 08:44:22;;;;;;;58.20;30.10;;;6.40;99.90;;;;;;5036142;28;20183;-70
2022/11/30 08:46:48;;;;;;;58.33;28.53;;;6.40;99.90;;;;;;5036139;28;20171;-70
2022/11/30 08:49:13;;;;;;;57.27;29.53;;;6.50;99.90;;;;;;5018016;28;20215;-70
2022/11/30 08:51:39;;;;;;;57.53;28.43;;;6.40;99.90;;;;;;5034286;28;20568;-70
2022/11/30 08:54:05;;;;;;;58.60;29.13;;;6.40;99.90;;;;;;5035691;28;20652;-70
2022/11/30 08:56:31;;;;;;;63.30;30.77;;;6.40;99.90;;;;;;5035745;28;20178;-70
2022/11/30 08:58:57;;;;;;;60.60;30.10;;;6.40;99.90;;;;;;5034259;28;20189;-70
2022/11/30 09:01:25;;;;;;;57.40;29.37;;;6.40;99.90;;;;;;5035656;28;20199;-70
2022/11/30 09:03:56;;;;;;;50.87;28.10;;;6.40;99.90;;;;;;5035504;28;20175;-70
2022/11/30 09:06:23;;;;;;;56.17;29.77;;;6.50;99.90;;;;;;5034049;28;20183;-70
2022/11/30 09:08:50;;;;;;;55.57;27.43;;;6.50;99.90;;;;;;5035265;28;20236;-70
2022/11/30 09:11:22;;;;;;;61.27;30.47;;;6.50;99.90;;;;;;5035263;28;20191;-70
2022/11/30 09:13:48;;;;;;;56.47;29.47;;;6.50;99.90;;;;;;5034155;28;20183;-70
2022/11/30 09:16:17;;;;;;;59.77;30.10;;;6.50;99.90;;;;;;5034890;28;20194;-70
2022/11/30 09:18:44;;;;;;;56.73;28.73;;;6.50;99.90;;;;;;5033666;28;20265;-70
2022/11/30 09:21:12;;;;;;;60.67;28.50;;;6.50;99.90;;;;;;5033810;28;20223;-70
2022/11/30 09:23:38;;;;;;;59.33;29.23;;;6.50;99.90;;;;;;5035275;28;20250;-70
2022/11/30 09:26:07;;;;;;;61.27;28.97;;;6.50;99.90;;;;;;5034891;28;20199;-70
2022/11/30 09:28:34;;;;;;;59.97;30.03;;;6.50;99.90;;;;;;5035501;28;20209;-70
2022/11/30 09:31:02;;;;;;;59.27;29.40;;;6.60;99.90;;;;;;5033501;28;20221;-70
2022/11/30 09:33:29;;;;;;;54.37;28.90;;;6.60;99.90;;;;;;5033690;28;20175;-70
2022/11/30 09:35:59;;;;;;;55.70;28.67;;;6.60;99.90;;;;;;5034822;28;20171;-70
2022/11/30 09:38:25;;;;;;;51.77;27.43;;;6.60;99.90;;;;;;5034966;28;20186;-70
2022/11/30 09:40:57;;;;;;;61.47;30.00;;;6.60;99.90;;;;;;5016804;28;20203;-70
2022/11/30 09:43:57;;;;;;;54.07;26.13;;;6.60;99.90;;;;;;5033529;28;20174;-70
2022/11/30 09:46:35;;;;;;;53.40;27.43;;;6.60;99.90;;;;;;5036729;28;20171;-70
2022/11/30 09:49:27;;;;;;;61.80;30.33;;;6.60;99.90;;;;;;5035094;28;20234;-70
2022/11/30 09:51:57;;;;;;;55.00;28.33;;;6.60;99.90;;;;;;5016032;28;20286;-70
2022/11/30 09:54:43;;;;;;;54.23;26.90;;;6.60;99.90;;;;;;5034694;28;20246;-70
2022/11/30 09:57:30;;;;;;;50.27;27.13;;;6.60;99.90;;;;;;5034292;28;20172;-70
2022/11/30 10:00:03;;;;;;;51.97;26.77;;;6.60;99.90;;;;;;5016540;28;20206;-70
2022/11/30 10:02:37;;;;;;;52.00;25.57;;;6.60;99.90;;;;;;5032917;28;20179;-70
2022/11/30 10:05:33;;;;;;;47.53;25.73;;;6.60;99.90;;;;;;5034477;28;20178;-70
2022/11/30 10:08:30;;;;;;;46.50;25.37;;;6.70;99.90;;;;;;5025636;28;20753;-70
2022/11/30 10:11:08;;;;;;;45.50;24.07;;;6.60;99.90;;;;;;5033941;28;20206;-70
2022/11/30 10:14:02;;;;;;;46.47;24.90;;;6.60;99.90;;;;;;5034593;28;20163;-70
2022/11/30 10:16:59;;;;;;;41.47;24.17;;;6.60;99.90;;;;;;5049252;28;20191;-70
2022/11/30 10:19:43;;;;;;;40.60;23.20;;;6.60;99.90;;;;;;5034012;28;20221;-70
2022/11/30 10:22:44;;;;;;;46.63;23.23;;;6.60;99.90;;;;;;5034233;28;20171;-70
2022/11/30 10:25:17;;;;;;;46.63;24.57;;;6.60;99.90;;;;;;5034179;28;20155;-68
2022/11/30 10:27:52;;;;;;;44.03;23.77;;;6.60;99.90;;;;;;5033399;28;20624;-70
2022/11/30 10:30:23;;;;;;;35.27;20.53;;;6.60;99.90;;;;;;5048940;28;20210;-70
2022/11/30 10:33:04;;;;;;;47.47;24.10;;;6.70;99.90;;;;;;5049058;28;20183;-70
2022/11/30 10:35:35;;;;;;;41.37;23.37;;;6.70;99.90;;;;;;5048979;28;20167;-70
2022/11/30 10:38:27;;;;;;;44.90;23.00;;;6.70;99.90;;;;;;5048936;28;20218;-70
2022/11/30 10:40:56;;;;;;;44.93;24.80;;;6.70;99.90;;;;;;5048722;28;20222;-70
2022/11/30 10:43:43;;;;;;;43.70;24.73;;;6.60;99.90;;;;;;5033604;28;20178;-70
2022/11/30 10:46:25;;;;;;;44.37;23.70;;;6.70;99.90;;;;;;5048820;28;20201;-70
2022/11/30 10:49:04;;;;;;;41.73;24.20;;;6.60;99.90;;;;;;5034038;28;20179;-70
2022/11/30 10:51:32;;;;;;;40.83;22.77;;;6.60;99.90;;;;;;5033544;28;20206;-70
2022/11/30 10:53:59;;;;;;;41.03;22.23;;;6.70;99.90;;;;;;5048861;28;20171;-70
2022/11/30 10:56:25;;;;;;;39.30;21.60;;;6.60;99.90;;;;;;5033266;28;20174;-70
2022/11/30 10:59:26;;;;;;;38.70;22.20;;;6.60;99.90;;;;;;5048826;28;20550;-70
2022/11/30 11:01:52;;;;;;;40.00;21.73;;;6.60;99.90;;;;;;5032065;28;20262;-70
2022/11/30 11:04:21;;;;;;;42.37;21.43;;;6.60;99.90;;;;;;5033395;28;20199;-70
2022/11/30 11:06:53;;;;;;;42.20;22.30;;;6.70;99.90;;;;;;5033222;28;20640;-70
2022/11/30 11:09:26;;;;;;;38.20;21.07;;;6.70;99.90;;;;;;5031850;28;20215;-70
2022/11/30 11:12:03;;;;;;;39.67;21.80;;;6.70;99.90;;;;;;5031910;28;20179;-70
2022/11/30 11:14:29;;;;;;;29.60;19.70;;;6.70;99.90;;;;;;5048392;28;20274;-70
2022/11/30 11:16:59;;;;;;;31.30;19.20;;;6.70;99.90;;;;;;5048638;28;20179;-70
2022/11/30 11:19:36;;;;;;;29.23;18.17;;;6.70;99.90;;;;;;5033400;28;20639;-70
2022/11/30 11:22:16;;;;;;;29.10;18.03;;;6.70;99.90;;;;;;5033245;28;20202;-70
2022/11/30 11:24:43;;;;;;;27.53;17.17;;;6.70;99.90;;;;;;5033722;28;20159;-70
2022/11/30 11:27:23;;;;;;;26.87;17.00;;;6.70;99.90;;;;;;5033059;28;20232;-70
2022/11/30 11:30:06;;;;;;;30.97;17.60;;;6.70;99.90;;;;;;5033407;28;20217;-70
2022/11/30 11:32:33;;;;;;;28.70;16.37;;;6.70;99.90;;;;;;5033197;28;20167;-70
2022/11/30 11:34:59;;;;;;;22.00;15.50;;;6.70;99.90;;;;;;5048487;28;20179;-70
2022/11/30 11:37:32;;;;;;;22.77;16.03;;;6.70;99.90;;;;;;5048400;28;20237;-70
2022/11/30 11:39:58;;;;;;;25.50;15.83;;;6.70;99.90;;;;;;5037050;28;20210;-70
2022/11/30 11:42:24;;;;;;;28.13;16.77;;;6.70;99.90;;;;;;5035638;28;20184;-70
2022/11/30 11:44:56;;;;;;;28.50;16.03;;;6.70;99.90;;;;;;5037049;28;20175;-70
2022/11/30 11:47:26;;;;;;;26.73;16.20;;;6.70;99.90;;;;;;5037543;28;20175;-70
2022/11/30 11:50:06;;;;;;;26.57;16.03;;;6.70;99.90;;;;;;5035631;28;20214;-70
2022/11/30 11:52:32;;;;;;;25.43;15.17;;;6.70;99.90;;;;;;5035584;28;20170;-70
2022/11/30 11:55:04;;;;;;;24.70;14.80;;;6.70;99.90;;;;;;5036801;28;20667;-70
2022/11/30 11:57:52;;;;;;;25.17;15.07;;;6.70;99.90;;;;;;5052152;28;20229;-70
2022/11/30 12:00:20;;;;;;;26.07;15.13;;;6.70;99.90;;;;;;5037491;28;20229;-70
2022/11/30 12:03:12;;;;;;;22.83;15.10;;;6.70;99.90;;;;;;5037251;28;20175;-70
2022/11/30 12:05:46;;;;;;;26.30;15.70;;;6.70;99.90;;;;;;5037369;28;20525;-70
2022/11/30 12:08:30;;;;;;;24.47;14.60;;;6.70;99.90;;;;;;5052351;28;20249;-69
2022/11/30 12:11:03;;;;;;;26.03;16.10;;;6.70;99.90;;;;;;5036278;28;20211;-70
2022/11/30 12:13:37;;;;;;;25.43;16.40;;;6.70;99.90;;;;;;5051950;28;20159;-70
2022/11/30 12:16:14;;;;;;;25.53;15.63;;;6.70;99.90;;;;;;5036408;28;20217;-70
2022/11/30 12:18:43;;;;;;;20.80;14.07;;;6.70;99.90;;;;;;5018983;28;20704;-70
2022/11/30 12:21:29;;;;;;;19.63;12.83;;;6.70;99.90;;;;;;5018678;28;20245;-70
2022/11/30 12:24:13;;;;;;;19.50;12.83;;;6.60;99.90;;;;;;5022354;28;20191;-70
2022/11/30 12:26:56;;;;;;;21.67;12.33;;;6.60;99.90;;;;;;5018404;28;20179;-70
2022/11/30 12:29:30;;;;;;;21.13;12.70;;;6.60;99.90;;;;;;5034869;28;20249;-70
2022/11/30 12:32:20;;;;;;;21.57;13.83;;;6.60;99.90;;;;;;5034681;28;20628;-70
2022/11/30 12:34:49;;;;;;;22.00;14.27;;;6.60;99.90;;;;;;5018491;28;20547;-70
2022/11/30 12:37:50;;;;;;;20.60;12.63;;;6.60;99.90;;;;;;5036458;28;20172;-70
2022/11/30 12:40:36;;;;;;;19.80;14.73;;;6.60;99.90;;;;;;5018174;28;20198;-70
2022/11/30 12:43:17;;;;;;;18.53;13.10;;;6.60;99.90;;;;;;5035962;28;20246;-70
2022/11/30 12:45:44;;;;;;;24.60;12.93;;;6.60;99.90;;;;;;5035981;28;20155;-70
2022/11/30 12:48:39;;;;;;;18.93;12.30;;;6.60;99.90;;;;;;5035886;28;20180;-70
2022/11/30 12:51:19;;;;;;;21.40;13.27;;;6.60;99.90;;;;;;5033204;28;20214;-70
2022/11/30 12:54:02;;;;;;;19.27;12.80;;;6.60;99.90;;;;;;5035791;28;20524;-70
2022/11/30 12:56:43;;;;;;;18.77;11.97;;;6.70;99.90;;;;;;5035485;28;20521;-70